Pinehurst, Texas
Current Conditions -  °F | °C
As of 6:53 AM on Wednesday 22 Oct 2014 (Local Time) from KDWH Reporting Station
Clear Clear  
Wind Chill: 64°   Ceiling: Unl
Heat Index: 64°   Visibility: 9mi
Dew Point: 61°   Wind: 3mph
Humidity: 90%   Direction: 50°NE
Pressure: 30.07"   Gusts: NA
Location:  30.19°N, 95.71°W
Report Text: KDWH 221153Z 05003KT 9SM CLR 18/16 A3007 RMK AO2 SLP179 T01780161 10183 20161 53012
Loading
Personal Weather Stations






























Interactive Weather Map
Tropical Storm Tracking
New forecast layout! Learn more

10-Day Weather Forecast

Advertisements
Track Severe Weather on mobile